Time;durP1;ratioP1;P1;durP2;ratioP2;P2;SDS_P1;SDS_P2;PMS_P1;PMS_P2;Temp;Humidity;BMP_temperature;BMP_pressure;BME280_temperature;BME280_humidity;BME280_pressure;Samples;Min_cycle;Max_cycle;Signal;HPM_P1;HPM_P2
2022/12/07 00:04:35;;;;;;;29.10;13.40;;;;;;;0.37;100.00;98168.11;214129;1312;23950;-77
2022/12/07 00:09:41;;;;;;;36.10;14.60;;;;;;;0.39;100.00;98167.63;213922;1312;22606;-77
2022/12/07 00:14:46;;;;;;;27.60;13.20;;;;;;;0.45;100.00;98169.95;214241;1311;22506;-76
2022/12/07 00:19:48;;;;;;;26.90;12.70;;;;;;;0.49;100.00;98166.48;214204;1303;22595;-76
2022/12/07 00:24:50;;;;;;;28.00;13.00;;;;;;;0.52;100.00;98163.95;214128;1310;26229;-77
2022/12/07 00:29:51;;;;;;;30.70;14.00;;;;;;;0.54;100.00;98163.34;213868;1311;22502;-77
2022/12/07 00:34:53;;;;;;;28.00;12.50;;;;;;;0.57;100.00;98159.13;214049;1313;22488;-76
2022/12/07 00:39:55;;;;;;;30.40;13.10;;;;;;;0.60;100.00;98157.05;214331;1312;22553;-77
2022/12/07 00:44:56;;;;;;;30.70;14.60;;;;;;;0.64;100.00;98154.02;214168;1312;22503;-75
2022/12/07 00:49:58;;;;;;;31.60;13.90;;;;;;;0.69;100.00;98143.61;214033;1312;22573;-77
2022/12/07 00:55:00;;;;;;;29.80;13.50;;;;;;;0.71;100.00;98138.21;214185;1312;25242;-76
2022/12/07 01:00:02;;;;;;;35.30;15.70;;;;;;;0.71;100.00;98136.30;214110;1312;22512;-77
2022/12/07 01:05:05;;;;;;;33.50;14.50;;;;;;;0.72;100.00;98135.33;214074;1313;23340;-78
2022/12/07 01:10:07;;;;;;;35.30;15.20;;;;;;;0.71;100.00;98125.45;214110;1313;22466;-77
2022/12/07 01:15:09;;;;;;;42.90;17.40;;;;;;;0.75;100.00;98124.45;214024;1310;22460;-77
2022/12/07 01:20:12;;;;;;;46.40;18.90;;;;;;;0.78;100.00;98124.39;214057;1312;25334;-77
2022/12/07 01:25:13;;;;;;;34.60;16.00;;;;;;;0.78;100.00;98119.48;214207;1312;22553;-77
2022/12/07 01:30:15;;;;;;;33.00;14.90;;;;;;;0.76;100.00;98116.95;214059;1312;22476;-75
2022/12/07 01:35:17;;;;;;;35.00;16.80;;;;;;;0.75;100.00;98120.14;214044;1312;24538;-78
2022/12/07 01:40:18;;;;;;;38.40;16.30;;;;;;;0.77;100.00;98124.02;214117;1312;25228;-76
2022/12/07 01:45:38;;;;;;;36.90;15.70;;;;;;;0.80;100.00;98125.33;214021;1311;23271;-77
2022/12/07 01:50:42;;;;;;;38.20;15.70;;;;;;;0.81;100.00;98125.48;214190;1313;24539;-77
2022/12/07 01:55:47;;;;;;;32.70;14.20;;;;;;;0.83;100.00;98120.41;214297;1304;22486;-78
2022/12/07 02:00:49;;;;;;;35.50;15.20;;;;;;;0.83;100.00;98125.49;214217;1311;23588;-77
2022/12/07 02:05:52;;;;;;;41.00;17.20;;;;;;;0.84;100.00;98120.97;214104;1311;25214;-76
2022/12/07 02:10:54;;;;;;;38.20;16.70;;;;;;;0.90;100.00;98118.83;214169;1311;25343;-76
2022/12/07 02:16:17;;;;;;;40.50;16.20;;;;;;;0.95;100.00;98118.69;214287;1310;22492;-76
2022/12/07 02:21:39;;;;;;;43.60;16.60;;;;;;;0.97;100.00;98119.41;214088;1310;25439;-77
2022/12/07 02:27:10;;;;;;;38.70;17.10;;;;;;;0.99;100.00;98119.33;214253;1310;25343;-77
2022/12/07 02:32:36;;;;;;;49.10;19.80;;;;;;;0.99;100.00;98125.24;214244;1310;22464;-77
2022/12/07 02:38:10;;;;;;;37.60;15.70;;;;;;;1.00;100.00;98124.67;214287;1310;22951;-77
2022/12/07 02:43:20;;;;;;;38.90;16.90;;;;;;;0.98;100.00;98120.10;214089;1310;22467;-76
2022/12/07 02:48:23;;;;;;;32.20;14.80;;;;;;;0.95;100.00;98115.79;214043;1310;24288;-77
2022/12/07 02:53:36;;;;;;;32.40;14.30;;;;;;;0.94;100.00;98107.60;214251;1310;24288;-76
2022/12/07 02:59:04;;;;;;;28.30;12.90;;;;;;;0.88;100.00;98109.73;214224;1310;22737;-76
2022/12/07 03:04:33;;;;;;;33.00;14.80;;;;;;;0.84;100.00;98114.68;214303;1306;25540;-76
2022/12/07 03:09:51;;;;;;;29.10;13.20;;;;;;;0.82;100.00;98112.17;214213;1310;22919;-76
2022/12/07 03:15:00;;;;;;;27.40;12.20;;;;;;;0.78;100.00;98104.89;214168;1309;22537;-76
2022/12/07 03:20:06;;;;;;;24.50;11.40;;;;;;;0.73;100.00;98106.23;214231;1310;24551;-77
2022/12/07 03:25:11;;;;;;;27.90;13.30;;;;;;;0.71;100.00;98103.40;214442;1310;22494;-76
2022/12/07 03:30:20;;;;;;;23.00;11.90;;;;;;;0.70;100.00;98093.74;214080;1310;25390;-77
2022/12/07 03:35:30;;;;;;;28.80;11.20;;;;;;;0.70;100.00;98092.85;214188;1310;22481;-76
2022/12/07 03:40:40;;;;;;;25.60;12.80;;;;;;;0.72;100.00;98095.04;214500;1310;22535;-76
2022/12/07 03:45:46;;;;;;;29.50;13.00;;;;;;;0.69;100.00;98095.95;214217;1310;22553;-77
2022/12/07 03:50:54;;;;;;;23.70;11.40;;;;;;;0.64;100.00;98097.35;214071;1310;22493;-77
2022/12/07 03:55:58;;;;;;;32.30;12.70;;;;;;;0.64;100.00;98095.23;214135;1310;25344;-77
2022/12/07 04:00:59;;;;;;;28.60;12.00;;;;;;;0.67;100.00;98095.70;214195;1311;23835;-77
2022/12/07 04:06:01;;;;;;;22.60;10.80;;;;;;;0.63;100.00;98095.27;214061;1310;22520;-77
2022/12/07 04:11:03;;;;;;;26.30;11.00;;;;;;;0.57;100.00;98098.39;214036;1310;22569;-76
2022/12/07 04:16:05;;;;;;;23.00;10.70;;;;;;;0.52;100.00;98094.31;214224;1306;22529;-76
2022/12/07 04:21:07;;;;;;;23.30;10.40;;;;;;;0.47;100.00;98093.17;214190;1310;22501;-76
2022/12/07 04:26:08;;;;;;;25.00;10.70;;;;;;;0.45;100.00;98094.04;214107;1310;22482;-76
2022/12/07 04:31:10;;;;;;;31.70;12.10;;;;;;;0.43;100.00;98092.86;214110;1310;24386;-76
2022/12/07 04:36:12;;;;;;;26.30;10.50;;;;;;;0.42;100.00;98090.29;214110;1310;22467;-77
2022/12/07 04:41:14;;;;;;;27.60;11.20;;;;;;;0.42;100.00;98095.68;214260;1310;25258;-77
2022/12/07 04:46:15;;;;;;;24.20;10.60;;;;;;;0.41;100.00;98087.48;214292;1310;23036;-77
2022/12/07 04:51:24;;;;;;;26.30;11.10;;;;;;;0.37;100.00;98092.08;214237;1303;22505;-76
2022/12/07 04:56:25;;;;;;;21.60;9.90;;;;;;;0.34;100.00;98097.66;214230;1310;22517;-77
2022/12/07 05:01:27;;;;;;;20.60;10.10;;;;;;;0.31;100.00;98095.40;214161;1310;25267;-77
2022/12/07 05:06:29;;;;;;;16.60;8.10;;;;;;;0.30;100.00;98096.58;214086;1310;25398;-76
2022/12/07 05:11:40;;;;;;;17.30;7.80;;;;;;;0.26;100.00;98099.84;214233;1310;22922;-75
2022/12/07 05:16:44;;;;;;;20.30;8.90;;;;;;;0.25;100.00;98099.92;214178;1310;25208;-76
2022/12/07 05:21:46;;;;;;;17.40;8.80;;;;;;;0.23;100.00;98101.15;214213;1305;22486;-76
2022/12/07 05:26:48;;;;;;;15.70;7.70;;;;;;;0.21;100.00;98100.17;214127;1303;24759;-77
2022/12/07 05:31:49;;;;;;;18.20;8.50;;;;;;;0.21;100.00;98099.58;214267;1309;22476;-77
2022/12/07 05:36:51;;;;;;;17.60;8.00;;;;;;;0.20;100.00;98098.36;214248;1303;22545;-77
2022/12/07 05:47:15;;;;;;;15.50;6.90;;;;;;;0.21;100.00;98101.48;214113;1310;23774;-77
2022/12/07 05:52:16;;;;;;;14.30;7.00;;;;;;;0.20;100.00;98098.05;214433;1310;22461;-77
2022/12/07 05:57:19;;;;;;;15.80;8.30;;;;;;;0.25;100.00;98096.81;214155;1310;23236;-77
2022/12/07 06:02:20;;;;;;;17.10;8.40;;;;;;;0.29;100.00;98098.83;214140;1310;22612;-77
2022/12/07 06:07:22;;;;;;;16.20;8.20;;;;;;;0.27;100.00;98102.97;214217;1310;27639;-79
2022/12/07 06:12:38;;;;;;;16.60;9.00;;;;;;;0.28;100.00;98103.13;214188;1303;25345;-76
2022/12/07 06:17:40;;;;;;;15.10;8.30;;;;;;;0.28;100.00;98102.15;214010;1310;22474;-78
2022/12/07 06:22:42;;;;;;;19.70;9.60;;;;;;;0.29;100.00;98108.27;214200;1310;22633;-77
2022/12/07 06:27:43;;;;;;;17.80;9.90;;;;;;;0.29;100.00;98118.44;214056;1311;22611;-77
2022/12/07 06:32:45;;;;;;;15.50;7.70;;;;;;;0.27;100.00;98120.48;214145;1310;25517;-78
2022/12/07 06:37:47;;;;;;;18.00;9.10;;;;;;;0.27;100.00;98123.89;214010;1310;23049;-77
2022/12/07 06:42:48;;;;;;;18.90;10.10;;;;;;;0.29;100.00;98124.96;214466;1288;22523;-76
2022/12/07 06:47:50;;;;;;;19.70;9.70;;;;;;;0.31;100.00;98125.60;214560;1294;22784;-76
2022/12/07 06:52:52;;;;;;;20.70;9.90;;;;;;;0.35;100.00;98127.40;214501;1284;22483;-76
2022/12/07 06:57:54;;;;;;;19.30;9.70;;;;;;;0.38;100.00;98132.39;214264;1283;22520;-75
2022/12/07 07:02:56;;;;;;;16.80;8.40;;;;;;;0.41;100.00;98132.92;214614;1280;139177;-75
2022/12/07 07:07:57;;;;;;;14.70;8.20;;;;;;;0.45;100.00;98132.99;215130;1286;138871;-77
2022/12/07 07:13:19;;;;;;;15.00;8.50;;;;;;;0.49;100.00;98134.69;214874;1281;22541;-75
2022/12/07 07:18:21;;;;;;;16.70;8.70;;;;;;;0.53;100.00;98140.13;214653;1280;138732;-76
2022/12/07 07:23:23;;;;;;;14.50;7.70;;;;;;;0.57;100.00;98133.30;214510;1280;138569;-75
2022/12/07 07:28:25;;;;;;;15.50;8.20;;;;;;;0.64;100.00;98134.78;214691;1281;140192;-75
2022/12/07 07:33:27;;;;;;;13.60;7.30;;;;;;;0.70;100.00;98131.40;214670;1281;139528;-75
2022/12/07 07:38:28;;;;;;;13.80;7.20;;;;;;;0.74;100.00;98130.34;214775;1284;139866;-75
2022/12/07 07:43:30;;;;;;;13.20;6.70;;;;;;;0.81;100.00;98127.86;215012;1285;22534;-76
2022/12/07 07:48:32;;;;;;;12.50;6.30;;;;;;;0.85;100.00;98128.61;214689;1286;138593;-76
2022/12/07 07:53:34;;;;;;;10.50;5.80;;;;;;;0.85;100.00;98123.30;215132;1278;138629;-76
2022/12/07 07:58:36;;;;;;;11.30;5.90;;;;;;;0.88;100.00;98126.92;214719;1281;139399;-76
2022/12/07 08:03:37;;;;;;;8.90;5.00;;;;;;;0.93;100.00;98132.59;214812;1284;139527;-75
2022/12/07 08:08:39;;;;;;;14.00;5.60;;;;;;;0.96;100.00;98136.75;215025;1284;138612;-75
2022/12/07 08:13:41;;;;;;;12.10;5.90;;;;;;;1.01;100.00;98136.50;214840;1281;23545;-75
2022/12/07 08:18:43;;;;;;;16.30;6.90;;;;;;;1.03;100.00;98142.70;214482;1278;138951;-75
2022/12/07 08:23:45;;;;;;;17.20;7.80;;;;;;;1.07;100.00;98154.41;214488;1295;139303;-75
2022/12/07 08:28:46;;;;;;;16.60;7.50;;;;;;;1.13;100.00;98157.77;214592;1286;139411;-75
2022/12/07 08:33:48;;;;;;;18.50;9.00;;;;;;;1.21;100.00;98160.64;214400;1291;139311;-75
2022/12/07 08:38:50;;;;;;;14.10;8.50;;;;;;;1.33;100.00;98165.77;214707;1284;139156;-77
2022/12/07 08:44:12;;;;;;;17.70;8.50;;;;;;;1.45;100.00;98165.45;214647;1281;138755;-77
2022/12/07 08:49:23;;;;;;;16.10;8.20;;;;;;;1.51;100.00;98164.48;214763;1281;25565;-76
2022/12/07 08:54:26;;;;;;;21.50;9.90;;;;;;;1.52;100.00;98166.98;214802;1281;139258;-76
2022/12/07 08:59:28;;;;;;;25.60;11.60;;;;;;;1.59;100.00;98166.27;214777;1281;139283;-76
2022/12/07 09:04:30;;;;;;;25.00;11.80;;;;;;;1.73;100.00;98159.00;215140;1281;139036;-77
2022/12/07 09:09:32;;;;;;;25.90;12.80;;;;;;;1.81;100.00;98155.87;215108;1289;139134;-77
2022/12/07 09:14:34;;;;;;;23.30;13.10;;;;;;;1.83;100.00;98150.24;214563;1285;139162;-77
2022/12/07 09:19:37;;;;;;;28.20;15.00;;;;;;;1.84;100.00;98146.36;214930;1286;26498;-77
2022/12/07 09:24:38;;;;;;;26.00;12.70;;;;;;;1.89;100.00;98140.87;214439;1281;138765;-77
2022/12/07 09:29:40;;;;;;;19.50;10.80;;;;;;;1.95;100.00;98132.89;214514;1295;138923;-77
2022/12/07 09:34:42;;;;;;;25.50;12.70;;;;;;;2.02;100.00;98128.17;214618;1279;139330;-78
2022/12/07 09:39:44;;;;;;;22.70;10.90;;;;;;;2.12;100.00;98118.23;214586;1298;139351;-79
2022/12/07 09:45:06;;;;;;;17.50;9.80;;;;;;;2.16;100.00;98111.65;214770;1287;139149;-78
2022/12/07 09:50:18;;;;;;;24.20;11.60;;;;;;;2.17;100.00;98108.14;214739;1281;138985;-77
2022/12/07 09:55:29;;;;;;;19.60;9.90;;;;;;;2.19;100.00;98100.06;214763;1284;22469;-78
2022/12/07 10:00:30;;;;;;;20.30;10.60;;;;;;;2.28;100.00;98098.30;214395;1281;138854;-79
2022/12/07 10:05:38;;;;;;;16.60;8.80;;;;;;;2.33;100.00;98091.89;215276;1281;139061;-78
2022/12/07 10:10:40;;;;;;;14.90;8.40;;;;;;;2.35;100.00;98083.82;214851;1281;138832;-79
2022/12/07 10:15:49;;;;;;;17.40;8.10;;;;;;;2.38;100.00;98080.36;214626;1284;138870;-79
2022/12/07 10:21:07;;;;;;;17.60;8.60;;;;;;;2.51;100.00;98067.81;214567;1281;138895;-79
2022/12/07 10:26:31;;;;;;;15.60;8.00;;;;;;;2.71;100.00;98062.31;215228;1280;139239;-78
2022/12/07 10:31:39;;;;;;;12.30;7.10;;;;;;;2.87;100.00;98063.74;214821;1281;22529;-77
2022/12/07 10:36:41;;;;;;;9.80;5.90;;;;;;;2.97;100.00;98062.05;215013;1287;138638;-76
2022/12/07 10:41:57;;;;;;;14.80;7.70;;;;;;;2.98;100.00;98062.02;214812;1282;139171;-76
2022/12/07 10:47:20;;;;;;;11.40;7.20;;;;;;;2.95;100.00;98056.48;215252;1280;139021;-77
2022/12/07 10:52:38;;;;;;;11.40;6.10;;;;;;;2.91;100.00;98059.75;214783;1278;139155;-77
2022/12/07 10:58:21;;;;;;;16.70;9.10;;;;;;;2.91;100.00;98057.89;214597;1289;139187;-77
2022/12/07 11:03:44;;;;;;;12.00;6.30;;;;;;;2.87;100.00;98050.29;215080;1285;139042;-77
2022/12/07 11:09:05;;;;;;;9.30;6.10;;;;;;;2.85;100.00;98050.55;215338;1293;138932;-79
2022/12/07 11:14:41;;;;;;;10.90;6.50;;;;;;;2.84;100.00;98046.58;215024;1279;138683;-78
2022/12/07 11:19:59;;;;;;;9.50;6.40;;;;;;;2.83;100.00;98039.74;214910;1281;22481;-76
2022/12/07 11:25:13;;;;;;;9.80;5.60;;;;;;;2.82;100.00;98038.26;214856;1287;24242;-78
2022/12/07 11:30:48;;;;;;;8.40;5.50;;;;;;;2.85;100.00;98032.02;214838;1286;138283;-77
2022/12/07 11:36:23;;;;;;;8.70;5.40;;;;;;;2.85;100.00;98013.98;214639;1291;138634;-78
2022/12/07 11:41:37;;;;;;;9.90;5.40;;;;;;;2.86;100.00;98008.80;214682;1285;139164;-77
2022/12/07 11:46:58;;;;;;;7.60;4.80;;;;;;;3.00;100.00;98012.11;214704;1281;138903;-78
2022/12/07 11:52:03;;;;;;;9.00;5.70;;;;;;;3.13;100.00;98016.30;214447;1310;138639;-76
2022/12/07 11:57:16;;;;;;;7.30;4.30;;;;;;;3.30;100.00;98016.05;214286;1309;138780;-78
2022/12/07 12:02:28;;;;;;;5.50;3.60;;;;;;;3.46;100.00;98014.15;214721;1281;138629;-78
2022/12/07 12:07:31;;;;;;;6.90;4.00;;;;;;;3.64;100.00;98015.14;215321;1295;22510;-77
2022/12/07 12:13:10;;;;;;;7.60;4.20;;;;;;;3.92;100.00;98013.61;214711;1285;138246;-78
2022/12/07 12:18:48;;;;;;;6.70;4.10;;;;;;;4.03;100.00;98020.35;214673;1304;138548;-77
2022/12/07 12:23:59;;;;;;;5.60;4.00;;;;;;;3.96;99.76;98017.64;214355;1288;139276;-76
2022/12/07 12:29:08;;;;;;;5.40;4.00;;;;;;;3.92;99.63;98003.59;214802;1285;138816;-78
2022/12/07 12:34:59;;;;;;;5.50;3.80;;;;;;;3.87;98.48;97996.64;214865;1287;138467;-79
2022/12/07 12:40:16;;;;;;;5.20;3.70;;;;;;;3.86;99.21;97992.25;215216;1281;138567;-76
2022/12/07 12:45:18;;;;;;;4.00;2.90;;;;;;;3.83;98.61;97983.34;214663;1287;138672;-76
2022/12/07 12:50:24;;;;;;;4.60;3.50;;;;;;;3.67;96.85;97984.44;214721;1284;138937;-75
2022/12/07 12:55:44;;;;;;;5.40;3.40;;;;;;;3.53;96.87;97991.02;214443;1298;23768;-75
2022/12/07 13:00:48;;;;;;;5.50;3.40;;;;;;;3.41;96.71;97988.02;214740;1281;138202;-76
2022/12/07 13:06:31;;;;;;;3.60;2.70;;;;;;;3.33;96.61;97993.02;215062;1287;138451;-76
2022/12/07 13:11:43;;;;;;;3.80;2.70;;;;;;;3.22;95.64;97998.34;214612;1284;138368;-77
2022/12/07 13:16:45;;;;;;;4.00;2.80;;;;;;;3.14;95.85;97999.73;214457;1281;138506;-76
2022/12/07 13:21:46;;;;;;;5.10;3.20;;;;;;;3.09;95.68;98004.33;214475;1298;138443;-76
2022/12/07 13:26:48;;;;;;;5.10;3.40;;;;;;;3.09;96.34;98006.64;214639;1309;138518;-75
2022/12/07 13:31:55;;;;;;;5.60;3.50;;;;;;;3.12;96.47;98008.02;214620;1281;22486;-77
2022/12/07 13:37:01;;;;;;;5.50;3.50;;;;;;;3.11;96.23;98006.70;214636;1287;137960;-78
2022/12/07 13:42:16;;;;;;;4.80;3.50;;;;;;;3.05;96.28;98015.77;214581;1284;139008;-77
2022/12/07 13:47:41;;;;;;;5.20;3.90;;;;;;;3.02;96.59;98017.89;214369;1305;138665;-76
2022/12/07 13:52:44;;;;;;;6.00;4.20;;;;;;;2.99;96.46;98024.48;214827;1290;138458;-77
2022/12/07 13:57:51;;;;;;;8.60;5.00;;;;;;;2.92;96.17;98032.28;214818;1310;138943;-78
2022/12/07 14:02:57;;;;;;;7.10;4.90;;;;;;;2.86;96.29;98031.02;214737;1288;138603;-78
2022/12/07 14:08:01;;;;;;;11.10;5.50;;;;;;;2.80;96.42;98035.29;215207;1289;25293;-77
2022/12/07 14:13:37;;;;;;;9.40;5.60;;;;;;;2.78;96.77;98034.52;214612;1288;22701;-76
2022/12/07 14:18:40;;;;;;;9.30;4.90;;;;;;;2.74;96.60;98041.02;214438;1296;138642;-77
2022/12/07 14:23:42;;;;;;;8.30;5.10;;;;;;;2.70;96.48;98046.48;214516;1287;138720;-76
2022/12/07 14:28:44;;;;;;;5.90;4.10;;;;;;;2.66;96.35;98051.79;214610;1286;138401;-75
2022/12/07 14:33:46;;;;;;;6.90;4.10;;;;;;;2.62;96.08;98056.64;214656;1284;138830;-77
2022/12/07 14:38:48;;;;;;;7.60;4.70;;;;;;;2.57;95.85;98050.41;214711;1288;138583;-74
2022/12/07 14:43:50;;;;;;;7.10;4.30;;;;;;;2.53;95.79;98052.83;214810;1281;22492;-76
2022/12/07 14:49:12;;;;;;;8.60;5.20;;;;;;;2.51;96.08;98056.49;214773;1284;25245;-76
2022/12/07 14:54:33;;;;;;;10.80;5.80;;;;;;;2.49;96.12;98064.47;214528;1280;137522;-76
2022/12/07 14:59:35;;;;;;;9.90;6.60;;;;;;;2.47;96.49;98066.27;214476;1284;138813;-76
2022/12/07 15:04:43;;;;;;;13.30;7.10;;;;;;;2.48;96.64;98070.50;214415;1281;24535;-76
2022/12/07 15:09:46;;;;;;;12.10;6.80;;;;;;;2.44;96.45;98074.70;214180;1311;25392;-77
2022/12/07 15:14:48;;;;;;;13.30;6.50;;;;;;;2.40;96.49;98076.81;214095;1311;22593;-76
2022/12/07 15:19:49;;;;;;;10.70;6.60;;;;;;;2.32;95.66;98080.31;214157;1310;22481;-77
2022/12/07 15:24:51;;;;;;;9.90;4.80;;;;;;;2.28;95.74;98076.46;214144;1312;22546;-76
2022/12/07 15:29:53;;;;;;;7.30;4.90;;;;;;;2.22;95.24;98073.17;214292;1313;25287;-77
2022/12/07 15:34:55;;;;;;;8.40;4.90;;;;;;;2.17;95.60;98069.55;214163;1312;22457;-77
2022/12/07 15:39:57;;;;;;;8.70;5.50;;;;;;;2.14;95.84;98071.52;214200;1310;22479;-76
2022/12/07 15:45:08;;;;;;;7.80;5.20;;;;;;;2.08;95.83;98069.84;214251;1310;22473;-77
2022/12/07 15:50:14;;;;;;;11.90;6.40;;;;;;;2.03;95.85;98072.48;214071;1312;25474;-77
2022/12/07 15:55:15;;;;;;;8.20;4.20;;;;;;;1.91;95.18;98071.30;214126;1313;25542;-76
2022/12/07 16:00:18;;;;;;;6.80;3.80;;;;;;;1.77;95.20;98082.94;214149;1313;22612;-76
2022/12/07 16:05:20;;;;;;;6.90;3.60;;;;;;;1.64;95.32;98086.12;214151;1304;22546;-77
2022/12/07 16:10:22;;;;;;;42.20;21.60;;;;;;;1.53;95.36;98081.62;214175;1312;22467;-76
2022/12/07 16:15:25;;;;;;;12.70;7.10;;;;;;;1.53;95.95;98083.52;214203;1313;25337;-76
2022/12/07 16:20:27;;;;;;;7.70;4.70;;;;;;;1.50;95.84;98081.52;214171;1312;24486;-77
2022/12/07 16:25:28;;;;;;;7.50;4.40;;;;;;;1.45;95.53;98075.23;214233;1311;25367;-77
2022/12/07 16:30:31;;;;;;;7.60;4.20;;;;;;;1.38;95.71;98076.63;214227;1313;25336;-78
2022/12/07 16:35:32;;;;;;;7.10;4.40;;;;;;;1.34;95.82;98077.84;214104;1305;22482;-75
2022/12/07 16:40:34;;;;;;;8.90;5.20;;;;;;;1.33;95.89;98079.77;214119;1308;22471;-77
2022/12/07 16:45:36;;;;;;;9.00;5.00;;;;;;;1.34;96.21;98079.02;214173;1313;25336;-78
2022/12/07 16:50:40;;;;;;;10.30;5.50;;;;;;;1.37;96.16;98080.69;214338;1310;25279;-76
2022/12/07 16:55:49;;;;;;;10.10;4.90;;;;;;;1.39;96.26;98078.65;214525;1311;24773;-77
2022/12/07 17:00:51;;;;;;;11.40;5.90;;;;;;;1.41;96.28;98073.44;214409;1312;23887;-76
2022/12/07 17:05:53;;;;;;;11.00;6.00;;;;;;;1.43;96.18;98080.80;214169;1311;25382;-77
2022/12/07 17:10:54;;;;;;;9.90;5.80;;;;;;;1.46;96.21;98077.41;214072;1304;22630;-76
2022/12/07 17:16:02;;;;;;;11.20;5.30;;;;;;;1.49;96.03;98077.66;214144;1311;22476;-77
2022/12/07 17:21:07;;;;;;;9.70;5.30;;;;;;;1.51;95.53;98074.15;214233;1312;22581;-76
2022/12/07 17:26:23;;;;;;;8.80;4.40;;;;;;;1.52;95.72;98072.52;214106;1311;22461;-77
2022/12/07 17:31:25;;;;;;;12.50;6.20;;;;;;;1.55;95.68;98072.35;214188;1311;22470;-76
2022/12/07 17:36:29;;;;;;;11.30;6.10;;;;;;;1.55;95.26;98075.88;214066;1305;22484;-77
2022/12/07 17:46:54;;;;;;;;;;;;;;;1.49;94.95;98074.23;214134;1310;22630;-77
2022/12/07 17:57:17;;;;;;;13.70;7.70;;;;;;;1.52;95.68;98078.02;214084;1312;22585;-77
2022/12/07 18:02:18;;;;;;;14.50;7.60;;;;;;;1.54;95.79;98077.73;214169;1305;24302;-77
2022/12/07 18:07:20;;;;;;;17.90;8.80;;;;;;;1.52;95.73;98075.43;214040;1312;22639;-77
2022/12/07 18:12:22;;;;;;;20.70;7.90;;;;;;;1.45;95.67;98074.08;214180;1312;22504;-77
2022/12/07 18:17:24;;;;;;;15.30;8.20;;;;;;;1.37;95.74;98070.77;214031;1311;22524;-77
2022/12/07 18:22:26;;;;;;;19.90;8.10;;;;;;;1.30;95.66;98065.49;213918;1311;25208;-77
2022/12/07 18:27:28;;;;;;;17.30;6.90;;;;;;;1.21;95.73;98061.64;213998;1313;22471;-78
2022/12/07 18:32:30;;;;;;;16.50;7.50;;;;;;;1.14;95.84;98062.13;214119;1312;22620;-78
2022/12/07 18:37:32;;;;;;;13.50;5.90;;;;;;;1.13;96.04;98062.96;214241;1313;23034;-78
2022/12/07 18:42:34;;;;;;;13.90;6.40;;;;;;;1.13;96.06;98061.80;214151;1313;24337;-77
2022/12/07 18:47:36;;;;;;;12.20;6.50;;;;;;;1.12;95.91;98065.06;214133;1311;24416;-77
2022/12/07 18:52:38;;;;;;;16.20;6.80;;;;;;;1.13;96.00;98074.00;214262;1313;24322;-76
2022/12/07 18:57:39;;;;;;;10.20;5.50;;;;;;;1.17;95.89;98072.04;214292;1311;24342;-78
2022/12/07 19:02:42;;;;;;;11.00;5.40;;;;;;;1.26;95.37;98076.84;213985;1310;22616;-76
2022/12/07 19:07:45;;;;;;;10.60;6.00;;;;;;;1.35;95.32;98077.69;214343;1289;22483;-77
2022/12/07 19:12:47;;;;;;;10.00;5.40;;;;;;;1.40;95.37;98083.67;214477;1313;25480;-77
2022/12/07 19:17:49;;;;;;;14.30;6.30;;;;;;;1.45;95.04;98085.33;214139;1311;22486;-76
2022/12/07 19:22:51;;;;;;;12.60;6.70;;;;;;;1.49;95.03;98090.27;214332;1313;25236;-77
2022/12/07 19:27:53;;;;;;;13.60;6.00;;;;;;;1.51;94.84;98094.42;214166;1312;22485;-77
2022/12/07 19:32:55;;;;;;;12.60;6.60;;;;;;;1.54;94.60;98098.00;214197;1312;22625;-76
2022/12/07 19:37:56;;;;;;;18.30;8.50;;;;;;;1.54;95.03;98109.87;214283;1311;25313;-77
2022/12/07 19:42:58;;;;;;;18.30;9.10;;;;;;;1.47;95.36;98110.70;214201;1310;22709;-77
2022/12/07 19:48:00;;;;;;;15.50;8.50;;;;;;;1.41;95.79;98114.56;214120;1312;22631;-78
2022/12/07 19:53:02;;;;;;;18.60;9.40;;;;;;;1.36;96.04;98120.73;214172;1312;22491;-77
2022/12/07 19:58:03;;;;;;;15.00;7.80;;;;;;;1.25;96.32;98122.38;214242;1313;22420;-78
2022/12/07 20:03:05;;;;;;;22.20;10.40;;;;;;;1.15;96.53;98120.52;214356;1308;24352;-77
2022/12/07 20:08:08;;;;;;;18.80;8.60;;;;;;;1.12;97.08;98118.52;214245;1308;22579;-78
2022/12/07 20:13:28;;;;;;;21.70;10.40;;;;;;;1.06;97.03;98121.44;214241;1313;22471;-77
2022/12/07 20:18:30;;;;;;;17.30;9.50;;;;;;;1.02;97.46;98116.30;214023;1312;25675;-78
2022/12/07 20:23:32;;;;;;;17.70;9.30;;;;;;;0.99;97.70;98116.59;214143;1312;22505;-78
2022/12/07 20:28:34;;;;;;;22.60;12.10;;;;;;;0.99;98.10;98115.33;214792;1312;24272;-78
2022/12/07 20:33:36;;;;;;;20.50;11.60;;;;;;;1.00;98.20;98117.70;214238;1313;22586;-79
2022/12/07 20:38:39;;;;;;;28.20;13.10;;;;;;;0.99;98.40;98116.10;214067;1313;22590;-79
2022/12/07 20:43:42;;;;;;;26.30;13.20;;;;;;;0.98;98.37;98114.45;214031;1310;22534;-78
2022/12/07 20:48:43;;;;;;;24.00;12.80;;;;;;;0.97;98.69;98113.34;214212;1310;24273;-80
2022/12/07 20:53:45;;;;;;;23.60;12.10;;;;;;;0.97;98.89;98110.23;214356;1310;22481;-80
2022/12/07 20:58:47;;;;;;;23.10;10.20;;;;;;;0.97;99.09;98112.55;214218;1310;25304;-78
2022/12/07 21:03:54;;;;;;;21.20;11.50;;;;;;;0.98;99.18;98113.98;215146;1310;22511;-79
2022/12/07 21:08:58;;;;;;;23.30;10.10;;;;;;;0.99;99.26;98107.89;214040;1310;22486;-78
2022/12/07 21:14:00;;;;;;;18.90;8.60;;;;;;;1.02;99.32;98108.19;214212;1310;22487;-78
2022/12/07 21:19:03;;;;;;;17.10;8.40;;;;;;;1.04;99.20;98106.42;214186;1310;22496;-78
2022/12/07 21:24:07;;;;;;;19.50;9.70;;;;;;;1.05;99.23;98104.13;214237;1310;22484;-80
2022/12/07 21:29:09;;;;;;;16.60;7.90;;;;;;;1.04;99.18;98104.58;214155;1310;22589;-78
2022/12/07 21:34:10;;;;;;;16.30;8.30;;;;;;;1.01;99.10;98102.48;214166;1310;24360;-77
2022/12/07 21:39:12;;;;;;;13.90;7.20;;;;;;;0.99;99.15;98106.73;214056;1310;24279;-78
2022/12/07 21:44:14;;;;;;;13.30;6.90;;;;;;;0.98;98.94;98109.71;214124;1310;23839;-77
2022/12/07 21:49:16;;;;;;;13.30;6.50;;;;;;;0.98;98.97;98113.52;214178;1310;22475;-76
2022/12/07 21:54:18;;;;;;;13.10;6.90;;;;;;;0.97;98.77;98114.88;214063;1310;22619;-77
2022/12/07 21:59:26;;;;;;;13.60;6.60;;;;;;;0.98;98.68;98114.98;214209;1310;23233;-76
2022/12/07 22:04:28;;;;;;;12.70;6.40;;;;;;;0.97;98.78;98113.86;214148;1310;24295;-78
2022/12/07 22:09:30;;;;;;;10.50;5.90;;;;;;;0.92;98.53;98112.00;214142;1310;22458;-78
2022/12/07 22:19:54;;;;;;;14.80;8.30;;;;;;;0.75;98.46;98114.32;214107;1310;25448;-78
2022/12/07 22:24:56;;;;;;;19.20;9.10;;;;;;;0.64;98.48;98121.55;214072;1310;22472;-76
2022/12/07 22:29:58;;;;;;;20.90;9.70;;;;;;;0.56;98.63;98120.41;214038;1310;22488;-76
2022/12/07 22:34:59;;;;;;;21.10;10.00;;;;;;;0.52;98.76;98121.30;214169;1310;22476;-76
2022/12/07 22:40:02;;;;;;;19.30;9.20;;;;;;;0.50;99.08;98123.69;213861;1310;119244;-76
2022/12/07 22:45:04;;;;;;;22.60;9.20;;;;;;;0.51;99.02;98126.66;214200;1310;22864;-76
2022/12/07 22:50:07;;;;;;;21.30;9.20;;;;;;;0.54;99.23;98125.34;214360;1310;22469;-74
2022/12/07 22:55:10;;;;;;;17.80;8.30;;;;;;;0.56;99.30;98129.27;214051;1310;22513;-78
2022/12/07 23:00:13;;;;;;;16.80;8.10;;;;;;;0.58;99.29;98122.40;214279;1310;22512;-76
2022/12/07 23:05:14;;;;;;;13.80;7.00;;;;;;;0.65;99.29;98120.30;214082;1310;22561;-78
2022/12/07 23:10:17;;;;;;;17.90;8.30;;;;;;;0.72;99.08;98119.84;214128;1310;22505;-77
2022/12/07 23:15:18;;;;;;;15.40;7.70;;;;;;;0.79;99.14;98114.61;214183;1310;22729;-77
2022/12/07 23:20:20;;;;;;;14.10;7.10;;;;;;;0.86;99.10;98115.08;214414;1310;25621;-76
2022/12/07 23:25:22;;;;;;;16.20;7.20;;;;;;;0.93;98.91;98112.97;214051;1310;22478;-76
2022/12/07 23:30:24;;;;;;;13.80;7.00;;;;;;;0.97;98.84;98109.27;214115;1310;24279;-76
2022/12/07 23:35:25;;;;;;;14.80;8.30;;;;;;;0.98;98.66;98114.67;214215;1310;23980;-76
2022/12/07 23:40:28;;;;;;;13.90;6.80;;;;;;;0.98;98.61;98113.23;214149;1310;22479;-76
2022/12/07 23:45:29;;;;;;;15.80;8.40;;;;;;;0.97;98.51;98107.95;214343;1310;22601;-75
2022/12/07 23:50:32;;;;;;;14.30;7.20;;;;;;;0.94;98.38;98107.39;214214;1311;24267;-76
2022/12/07 23:55:34;;;;;;;15.20;6.20;;;;;;;0.90;98.24;98105.95;214293;1310;22601;-76
